sensor_id;sensor_type;location;lat;lon;timestamp;P1;durP1;ratioP1;P2;durP2;ratioP2
4232;SDS011;2130;48.472;11.934;2023-04-07T00:01:01;31.80;;;3.50;;
4232;SDS011;2130;48.472;11.934;2023-04-07T00:03:49;30.70;;;3.30;;
4232;SDS011;2130;48.472;11.934;2023-04-07T00:06:38;30.63;;;2.90;;
4232;SDS011;2130;48.472;11.934;2023-04-07T00:09:29;30.67;;;3.30;;
4232;SDS011;2130;48.472;11.934;2023-04-07T00:12:17;30.87;;;3.30;;
4232;SDS011;2130;48.472;11.934;2023-04-07T00:15:06;30.97;;;3.33;;
4232;SDS011;2130;48.472;11.934;2023-04-07T00:17:56;30.27;;;2.90;;
4232;SDS011;2130;48.472;11.934;2023-04-07T00:20:45;31.57;;;3.77;;
4232;SDS011;2130;48.472;11.934;2023-04-07T00:23:33;30.10;;;2.83;;
4232;SDS011;2130;48.472;11.934;2023-04-07T00:26:22;30.80;;;2.93;;
4232;SDS011;2130;48.472;11.934;2023-04-07T00:29:13;30.53;;;3.40;;
4232;SDS011;2130;48.472;11.934;2023-04-07T00:32:01;32.80;;;3.60;;
4232;SDS011;2130;48.472;11.934;2023-04-07T00:34:51;29.53;;;2.70;;
4232;SDS011;2130;48.472;11.934;2023-04-07T00:37:40;29.93;;;2.87;;
4232;SDS011;2130;48.472;11.934;2023-04-07T00:40:28;30.30;;;3.30;;
4232;SDS011;2130;48.472;11.934;2023-04-07T00:43:17;30.20;;;3.20;;
4232;SDS011;2130;48.472;11.934;2023-04-07T00:46:05;30.70;;;2.70;;
4232;SDS011;2130;48.472;11.934;2023-04-07T00:48:54;33.17;;;3.47;;
4232;SDS011;2130;48.472;11.934;2023-04-07T00:51:44;36.90;;;3.90;;
4232;SDS011;2130;48.472;11.934;2023-04-07T00:54:32;30.57;;;2.70;;
4232;SDS011;2130;48.472;11.934;2023-04-07T00:57:21;32.13;;;3.60;;
4232;SDS011;2130;48.472;11.934;2023-04-07T01:00:11;31.77;;;3.50;;
4232;SDS011;2130;48.472;11.934;2023-04-07T01:03:00;29.93;;;3.10;;
4232;SDS011;2130;48.472;11.934;2023-04-07T01:05:54;30.70;;;2.83;;
4232;SDS011;2130;48.472;11.934;2023-04-07T01:08:50;31.20;;;2.80;;
4232;SDS011;2130;48.472;11.934;2023-04-07T01:11:42;33.73;;;3.43;;
4232;SDS011;2130;48.472;11.934;2023-04-07T01:14:39;30.67;;;3.27;;
4232;SDS011;2130;48.472;11.934;2023-04-07T01:17:54;30.63;;;3.23;;
4232;SDS011;2130;48.472;11.934;2023-04-07T01:20:47;31.97;;;2.93;;
4232;SDS011;2130;48.472;11.934;2023-04-07T01:23:43;31.73;;;3.10;;
4232;SDS011;2130;48.472;11.934;2023-04-07T01:26:39;35.20;;;2.90;;
4232;SDS011;2130;48.472;11.934;2023-04-07T01:29:33;31.27;;;3.63;;
4232;SDS011;2130;48.472;11.934;2023-04-07T01:32:26;31.60;;;2.73;;
4232;SDS011;2130;48.472;11.934;2023-04-07T01:35:14;31.10;;;2.93;;
4232;SDS011;2130;48.472;11.934;2023-04-07T01:38:03;30.57;;;2.90;;
4232;SDS011;2130;48.472;11.934;2023-04-07T01:40:52;30.37;;;3.10;;
4232;SDS011;2130;48.472;11.934;2023-04-07T01:43:41;30.73;;;3.07;;
4232;SDS011;2130;48.472;11.934;2023-04-07T01:46:33;31.90;;;3.23;;
4232;SDS011;2130;48.472;11.934;2023-04-07T01:49:21;31.83;;;3.33;;
4232;SDS011;2130;48.472;11.934;2023-04-07T01:52:10;33.40;;;3.47;;
4232;SDS011;2130;48.472;11.934;2023-04-07T01:54:59;31.93;;;3.00;;
4232;SDS011;2130;48.472;11.934;2023-04-07T01:57:49;33.57;;;3.87;;
4232;SDS011;2130;48.472;11.934;2023-04-07T02:00:38;32.70;;;3.63;;
4232;SDS011;2130;48.472;11.934;2023-04-07T02:03:35;32.37;;;3.07;;
4232;SDS011;2130;48.472;11.934;2023-04-07T02:06:31;31.43;;;3.23;;
4232;SDS011;2130;48.472;11.934;2023-04-07T02:09:22;32.73;;;3.40;;
4232;SDS011;2130;48.472;11.934;2023-04-07T02:12:12;30.80;;;3.13;;
4232;SDS011;2130;48.472;11.934;2023-04-07T02:15:12;31.23;;;2.83;;
4232;SDS011;2130;48.472;11.934;2023-04-07T02:18:01;34.40;;;2.83;;
4232;SDS011;2130;48.472;11.934;2023-04-07T02:20:52;30.57;;;3.40;;
4232;SDS011;2130;48.472;11.934;2023-04-07T02:23:41;32.63;;;3.47;;
4232;SDS011;2130;48.472;11.934;2023-04-07T02:26:32;32.30;;;3.30;;
4232;SDS011;2130;48.472;11.934;2023-04-07T02:29:21;31.30;;;3.10;;
4232;SDS011;2130;48.472;11.934;2023-04-07T02:32:10;30.37;;;2.57;;
4232;SDS011;2130;48.472;11.934;2023-04-07T02:34:58;31.00;;;2.90;;
4232;SDS011;2130;48.472;11.934;2023-04-07T02:37:48;32.47;;;3.67;;
4232;SDS011;2130;48.472;11.934;2023-04-07T02:40:37;30.40;;;3.37;;
4232;SDS011;2130;48.472;11.934;2023-04-07T02:43:25;32.97;;;2.90;;
4232;SDS011;2130;48.472;11.934;2023-04-07T02:46:14;32.97;;;3.60;;
4232;SDS011;2130;48.472;11.934;2023-04-07T02:49:02;36.80;;;3.50;;
4232;SDS011;2130;48.472;11.934;2023-04-07T02:51:51;31.40;;;2.93;;
4232;SDS011;2130;48.472;11.934;2023-04-07T02:54:40;32.73;;;3.13;;
4232;SDS011;2130;48.472;11.934;2023-04-07T02:57:30;29.97;;;2.87;;
4232;SDS011;2130;48.472;11.934;2023-04-07T03:00:22;32.73;;;3.43;;
4232;SDS011;2130;48.472;11.934;2023-04-07T03:03:54;31.87;;;3.50;;
4232;SDS011;2130;48.472;11.934;2023-04-07T03:06:44;33.07;;;3.20;;
4232;SDS011;2130;48.472;11.934;2023-04-07T03:09:37;31.30;;;3.20;;
4232;SDS011;2130;48.472;11.934;2023-04-07T03:12:27;32.07;;;2.70;;
4232;SDS011;2130;48.472;11.934;2023-04-07T03:15:16;31.50;;;3.50;;
4232;SDS011;2130;48.472;11.934;2023-04-07T03:18:07;29.90;;;2.40;;
4232;SDS011;2130;48.472;11.934;2023-04-07T03:21:00;33.50;;;4.20;;
4232;SDS011;2130;48.472;11.934;2023-04-07T03:23:50;32.33;;;2.70;;
4232;SDS011;2130;48.472;11.934;2023-04-07T03:26:39;30.87;;;2.77;;
4232;SDS011;2130;48.472;11.934;2023-04-07T03:29:38;32.10;;;3.70;;
4232;SDS011;2130;48.472;11.934;2023-04-07T03:32:30;33.97;;;3.83;;
4232;SDS011;2130;48.472;11.934;2023-04-07T03:35:18;31.47;;;3.47;;
4232;SDS011;2130;48.472;11.934;2023-04-07T03:38:07;30.73;;;2.77;;
4232;SDS011;2130;48.472;11.934;2023-04-07T03:40:55;31.97;;;3.30;;
4232;SDS011;2130;48.472;11.934;2023-04-07T03:43:44;30.63;;;2.80;;
4232;SDS011;2130;48.472;11.934;2023-04-07T03:46:34;32.83;;;3.90;;
4232;SDS011;2130;48.472;11.934;2023-04-07T03:49:23;31.03;;;3.57;;
4232;SDS011;2130;48.472;11.934;2023-04-07T03:52:12;33.90;;;3.83;;
4232;SDS011;2130;48.472;11.934;2023-04-07T03:55:04;30.60;;;3.10;;
4232;SDS011;2130;48.472;11.934;2023-04-07T03:57:54;30.20;;;2.90;;
4232;SDS011;2130;48.472;11.934;2023-04-07T04:00:44;35.13;;;3.37;;
4232;SDS011;2130;48.472;11.934;2023-04-07T04:03:34;32.63;;;3.73;;
4232;SDS011;2130;48.472;11.934;2023-04-07T04:06:36;29.87;;;2.60;;
4232;SDS011;2130;48.472;11.934;2023-04-07T04:09:45;34.93;;;3.77;;
4232;SDS011;2130;48.472;11.934;2023-04-07T04:12:34;31.87;;;3.77;;
4232;SDS011;2130;48.472;11.934;2023-04-07T04:15:27;32.13;;;3.60;;
4232;SDS011;2130;48.472;11.934;2023-04-07T04:18:17;32.70;;;3.67;;
4232;SDS011;2130;48.472;11.934;2023-04-07T04:21:07;30.80;;;3.50;;
4232;SDS011;2130;48.472;11.934;2023-04-07T04:23:59;32.27;;;3.63;;
4232;SDS011;2130;48.472;11.934;2023-04-07T04:26:49;29.40;;;2.70;;
4232;SDS011;2130;48.472;11.934;2023-04-07T04:29:38;30.40;;;2.87;;
4232;SDS011;2130;48.472;11.934;2023-04-07T04:32:30;31.70;;;2.93;;
4232;SDS011;2130;48.472;11.934;2023-04-07T04:35:18;32.40;;;3.57;;
4232;SDS011;2130;48.472;11.934;2023-04-07T04:38:22;29.73;;;2.60;;
4232;SDS011;2130;48.472;11.934;2023-04-07T04:41:22;30.73;;;3.13;;
4232;SDS011;2130;48.472;11.934;2023-04-07T04:44:11;30.57;;;3.00;;
4232;SDS011;2130;48.472;11.934;2023-04-07T04:47:01;32.93;;;3.73;;
4232;SDS011;2130;48.472;11.934;2023-04-07T04:49:50;33.57;;;4.10;;
4232;SDS011;2130;48.472;11.934;2023-04-07T04:52:39;37.67;;;3.53;;
4232;SDS011;2130;48.472;11.934;2023-04-07T04:55:36;30.80;;;3.40;;
4232;SDS011;2130;48.472;11.934;2023-04-07T04:58:27;31.30;;;2.83;;
4232;SDS011;2130;48.472;11.934;2023-04-07T05:01:16;31.00;;;3.10;;
4232;SDS011;2130;48.472;11.934;2023-04-07T05:04:12;30.70;;;3.07;;
4232;SDS011;2130;48.472;11.934;2023-04-07T05:07:06;34.17;;;3.83;;
4232;SDS011;2130;48.472;11.934;2023-04-07T05:09:55;33.40;;;3.90;;
4232;SDS011;2130;48.472;11.934;2023-04-07T05:12:45;38.63;;;3.27;;
4232;SDS011;2130;48.472;11.934;2023-04-07T05:15:33;32.13;;;3.53;;
4232;SDS011;2130;48.472;11.934;2023-04-07T05:18:24;32.10;;;3.37;;
4232;SDS011;2130;48.472;11.934;2023-04-07T05:21:13;36.40;;;3.70;;
4232;SDS011;2130;48.472;11.934;2023-04-07T05:24:01;30.00;;;3.20;;
4232;SDS011;2130;48.472;11.934;2023-04-07T05:26:52;31.33;;;3.43;;
4232;SDS011;2130;48.472;11.934;2023-04-07T05:29:42;30.23;;;3.33;;
4232;SDS011;2130;48.472;11.934;2023-04-07T05:32:40;31.13;;;3.53;;
4232;SDS011;2130;48.472;11.934;2023-04-07T05:35:37;30.60;;;2.97;;
4232;SDS011;2130;48.472;11.934;2023-04-07T05:38:26;31.70;;;3.60;;
4232;SDS011;2130;48.472;11.934;2023-04-07T05:41:19;30.90;;;3.00;;
4232;SDS011;2130;48.472;11.934;2023-04-07T05:44:07;30.70;;;3.53;;
4232;SDS011;2130;48.472;11.934;2023-04-07T05:47:01;31.53;;;3.43;;
4232;SDS011;2130;48.472;11.934;2023-04-07T05:49:52;29.60;;;2.90;;
4232;SDS011;2130;48.472;11.934;2023-04-07T05:52:40;33.70;;;4.40;;
4232;SDS011;2130;48.472;11.934;2023-04-07T05:55:40;35.60;;;4.50;;
4232;SDS011;2130;48.472;11.934;2023-04-07T05:58:33;35.03;;;3.90;;
4232;SDS011;2130;48.472;11.934;2023-04-07T06:01:22;30.83;;;3.17;;
4232;SDS011;2130;48.472;11.934;2023-04-07T06:04:15;32.67;;;3.63;;
4232;SDS011;2130;48.472;11.934;2023-04-07T06:07:06;33.37;;;3.43;;
4232;SDS011;2130;48.472;11.934;2023-04-07T06:09:55;33.90;;;4.33;;
4232;SDS011;2130;48.472;11.934;2023-04-07T06:12:45;33.90;;;4.27;;
4232;SDS011;2130;48.472;11.934;2023-04-07T06:15:33;33.70;;;3.07;;
4232;SDS011;2130;48.472;11.934;2023-04-07T06:18:22;30.93;;;3.67;;
4232;SDS011;2130;48.472;11.934;2023-04-07T06:21:12;33.37;;;3.70;;
4232;SDS011;2130;48.472;11.934;2023-04-07T06:24:00;30.80;;;3.60;;
4232;SDS011;2130;48.472;11.934;2023-04-07T06:26:49;29.10;;;3.13;;
4232;SDS011;2130;48.472;11.934;2023-04-07T06:29:40;31.73;;;3.90;;
4232;SDS011;2130;48.472;11.934;2023-04-07T06:32:28;30.70;;;3.87;;
4232;SDS011;2130;48.472;11.934;2023-04-07T06:35:17;31.13;;;3.37;;
4232;SDS011;2130;48.472;11.934;2023-04-07T06:38:07;33.23;;;3.87;;
4232;SDS011;2130;48.472;11.934;2023-04-07T06:40:57;30.30;;;3.63;;
4232;SDS011;2130;48.472;11.934;2023-04-07T06:43:46;31.00;;;3.87;;
4232;SDS011;2130;48.472;11.934;2023-04-07T06:46:37;30.93;;;4.43;;
4232;SDS011;2130;48.472;11.934;2023-04-07T06:49:25;30.73;;;4.10;;
4232;SDS011;2130;48.472;11.934;2023-04-07T06:52:14;29.13;;;3.83;;
4232;SDS011;2130;48.472;11.934;2023-04-07T06:55:04;29.90;;;4.43;;
4232;SDS011;2130;48.472;11.934;2023-04-07T06:57:53;29.87;;;4.73;;
4232;SDS011;2130;48.472;11.934;2023-04-07T07:00:42;31.73;;;5.00;;
4232;SDS011;2130;48.472;11.934;2023-04-07T07:03:33;28.63;;;3.73;;
4232;SDS011;2130;48.472;11.934;2023-04-07T07:06:21;27.57;;;3.60;;
4232;SDS011;2130;48.472;11.934;2023-04-07T07:09:10;27.47;;;3.90;;
4232;SDS011;2130;48.472;11.934;2023-04-07T07:11:59;30.50;;;4.17;;
4232;SDS011;2130;48.472;11.934;2023-04-07T07:14:50;30.50;;;4.13;;
4232;SDS011;2130;48.472;11.934;2023-04-07T07:17:38;26.23;;;3.83;;
4232;SDS011;2130;48.472;11.934;2023-04-07T07:20:27;24.53;;;3.70;;
4232;SDS011;2130;48.472;11.934;2023-04-07T07:23:16;24.60;;;3.37;;
4232;SDS011;2130;48.472;11.934;2023-04-07T07:26:04;24.80;;;2.80;;
4232;SDS011;2130;48.472;11.934;2023-04-07T07:28:54;23.17;;;3.10;;
4232;SDS011;2130;48.472;11.934;2023-04-07T07:31:42;24.53;;;3.40;;
4232;SDS011;2130;48.472;11.934;2023-04-07T07:34:31;29.50;;;3.47;;
4232;SDS011;2130;48.472;11.934;2023-04-07T07:37:20;22.03;;;2.90;;
4232;SDS011;2130;48.472;11.934;2023-04-07T07:40:08;25.77;;;3.40;;
4232;SDS011;2130;48.472;11.934;2023-04-07T07:42:57;20.70;;;2.90;;
4232;SDS011;2130;48.472;11.934;2023-04-07T07:45:47;21.33;;;2.43;;
4232;SDS011;2130;48.472;11.934;2023-04-07T07:48:35;20.20;;;2.20;;
4232;SDS011;2130;48.472;11.934;2023-04-07T07:51:23;20.30;;;2.83;;
4232;SDS011;2130;48.472;11.934;2023-04-07T07:54:13;21.40;;;2.60;;
4232;SDS011;2130;48.472;11.934;2023-04-07T07:57:02;20.80;;;2.23;;
4232;SDS011;2130;48.472;11.934;2023-04-07T07:59:52;21.30;;;2.63;;
4232;SDS011;2130;48.472;11.934;2023-04-07T08:02:41;17.00;;;1.93;;
4232;SDS011;2130;48.472;11.934;2023-04-07T08:05:30;19.60;;;1.93;;
4232;SDS011;2130;48.472;11.934;2023-04-07T08:08:18;18.20;;;1.80;;
4232;SDS011;2130;48.472;11.934;2023-04-07T08:11:07;19.17;;;2.33;;
4232;SDS011;2130;48.472;11.934;2023-04-07T08:13:55;17.07;;;1.80;;
4232;SDS011;2130;48.472;11.934;2023-04-07T08:16:44;17.47;;;2.20;;
4232;SDS011;2130;48.472;11.934;2023-04-07T08:19:34;17.67;;;2.30;;
4232;SDS011;2130;48.472;11.934;2023-04-07T08:22:22;16.80;;;1.40;;
4232;SDS011;2130;48.472;11.934;2023-04-07T08:25:11;17.77;;;1.77;;
4232;SDS011;2130;48.472;11.934;2023-04-07T08:27:59;21.63;;;2.43;;
4232;SDS011;2130;48.472;11.934;2023-04-07T08:30:47;18.37;;;2.10;;
4232;SDS011;2130;48.472;11.934;2023-04-07T08:33:36;18.33;;;1.90;;
4232;SDS011;2130;48.472;11.934;2023-04-07T08:36:26;17.73;;;1.80;;
4232;SDS011;2130;48.472;11.934;2023-04-07T08:39:16;17.13;;;1.80;;
4232;SDS011;2130;48.472;11.934;2023-04-07T08:42:05;19.10;;;1.90;;
4232;SDS011;2130;48.472;11.934;2023-04-07T08:44:55;19.07;;;2.27;;
4232;SDS011;2130;48.472;11.934;2023-04-07T08:47:46;19.20;;;2.17;;
4232;SDS011;2130;48.472;11.934;2023-04-07T08:50:36;19.93;;;2.17;;
4232;SDS011;2130;48.472;11.934;2023-04-07T08:53:27;18.40;;;1.93;;
4232;SDS011;2130;48.472;11.934;2023-04-07T08:56:22;17.90;;;1.80;;
4232;SDS011;2130;48.472;11.934;2023-04-07T08:59:12;19.57;;;2.20;;
4232;SDS011;2130;48.472;11.934;2023-04-07T09:02:01;18.67;;;1.60;;
4232;SDS011;2130;48.472;11.934;2023-04-07T09:04:52;18.87;;;1.93;;
4232;SDS011;2130;48.472;11.934;2023-04-07T09:07:40;19.87;;;2.40;;
4232;SDS011;2130;48.472;11.934;2023-04-07T09:10:31;19.80;;;1.77;;
4232;SDS011;2130;48.472;11.934;2023-04-07T09:13:19;19.40;;;2.10;;
4232;SDS011;2130;48.472;11.934;2023-04-07T09:16:08;19.20;;;2.03;;
4232;SDS011;2130;48.472;11.934;2023-04-07T09:18:56;18.53;;;1.63;;
4232;SDS011;2130;48.472;11.934;2023-04-07T09:21:48;19.10;;;1.90;;
4232;SDS011;2130;48.472;11.934;2023-04-07T09:24:38;19.63;;;2.27;;
4232;SDS011;2130;48.472;11.934;2023-04-07T09:27:28;20.07;;;2.00;;
4232;SDS011;2130;48.472;11.934;2023-04-07T09:30:17;20.17;;;2.10;;
4232;SDS011;2130;48.472;11.934;2023-04-07T09:33:06;18.80;;;1.80;;
4232;SDS011;2130;48.472;11.934;2023-04-07T09:35:54;18.50;;;1.43;;
4232;SDS011;2130;48.472;11.934;2023-04-07T09:38:43;20.10;;;1.80;;
4232;SDS011;2130;48.472;11.934;2023-04-07T09:41:32;20.10;;;1.60;;
4232;SDS011;2130;48.472;11.934;2023-04-07T09:44:22;19.37;;;1.40;;
4232;SDS011;2130;48.472;11.934;2023-04-07T09:47:11;18.67;;;1.60;;
4232;SDS011;2130;48.472;11.934;2023-04-07T09:49:59;19.67;;;1.50;;
4232;SDS011;2130;48.472;11.934;2023-04-07T09:52:53;18.40;;;1.77;;
4232;SDS011;2130;48.472;11.934;2023-04-07T09:55:41;18.73;;;1.60;;
4232;SDS011;2130;48.472;11.934;2023-04-07T09:58:32;19.07;;;1.60;;
4232;SDS011;2130;48.472;11.934;2023-04-07T10:01:22;19.17;;;1.60;;
4232;SDS011;2130;48.472;11.934;2023-04-07T10:04:11;18.23;;;1.83;;
4232;SDS011;2130;48.472;11.934;2023-04-07T10:07:00;19.20;;;1.90;;
4232;SDS011;2130;48.472;11.934;2023-04-07T10:09:49;18.30;;;1.67;;
4232;SDS011;2130;48.472;11.934;2023-04-07T10:12:37;20.10;;;1.97;;
4232;SDS011;2130;48.472;11.934;2023-04-07T10:15:27;21.70;;;2.07;;
4232;SDS011;2130;48.472;11.934;2023-04-07T10:18:17;18.43;;;1.73;;
4232;SDS011;2130;48.472;11.934;2023-04-07T10:21:07;18.80;;;1.50;;
4232;SDS011;2130;48.472;11.934;2023-04-07T10:24:03;20.83;;;2.13;;
4232;SDS011;2130;48.472;11.934;2023-04-07T10:26:56;19.10;;;1.70;;
4232;SDS011;2130;48.472;11.934;2023-04-07T10:29:49;19.70;;;1.90;;
4232;SDS011;2130;48.472;11.934;2023-04-07T10:32:44;19.10;;;2.00;;
4232;SDS011;2130;48.472;11.934;2023-04-07T10:42:11;21.53;;;2.00;;
4232;SDS011;2130;48.472;11.934;2023-04-07T10:45:51;19.63;;;2.00;;
4232;SDS011;2130;48.472;11.934;2023-04-07T10:48:52;19.07;;;1.90;;
4232;SDS011;2130;48.472;11.934;2023-04-07T10:58:22;18.93;;;1.80;;
4232;SDS011;2130;48.472;11.934;2023-04-07T11:01:17;18.20;;;1.70;;
4232;SDS011;2130;48.472;11.934;2023-04-07T11:04:07;19.60;;;1.87;;
4232;SDS011;2130;48.472;11.934;2023-04-07T11:06:56;18.30;;;2.00;;
4232;SDS011;2130;48.472;11.934;2023-04-07T11:09:46;19.00;;;2.10;;
4232;SDS011;2130;48.472;11.934;2023-04-07T11:12:35;17.93;;;1.60;;
4232;SDS011;2130;48.472;11.934;2023-04-07T11:15:23;19.43;;;1.90;;
4232;SDS011;2130;48.472;11.934;2023-04-07T11:18:15;18.20;;;2.00;;
4232;SDS011;2130;48.472;11.934;2023-04-07T11:21:05;17.10;;;1.77;;
4232;SDS011;2130;48.472;11.934;2023-04-07T11:23:54;17.10;;;1.70;;
4232;SDS011;2130;48.472;11.934;2023-04-07T11:26:44;18.10;;;2.00;;
4232;SDS011;2130;48.472;11.934;2023-04-07T11:29:35;17.50;;;2.07;;
4232;SDS011;2130;48.472;11.934;2023-04-07T11:32:24;17.83;;;1.80;;
4232;SDS011;2130;48.472;11.934;2023-04-07T11:35:15;18.60;;;1.87;;
4232;SDS011;2130;48.472;11.934;2023-04-07T11:38:04;17.50;;;1.90;;
4232;SDS011;2130;48.472;11.934;2023-04-07T11:40:55;17.10;;;1.90;;
4232;SDS011;2130;48.472;11.934;2023-04-07T11:43:45;17.00;;;1.77;;
4232;SDS011;2130;48.472;11.934;2023-04-07T11:46:34;16.50;;;1.90;;
4232;SDS011;2130;48.472;11.934;2023-04-07T11:49:23;17.53;;;1.70;;
4232;SDS011;2130;48.472;11.934;2023-04-07T11:52:13;18.00;;;2.13;;
4232;SDS011;2130;48.472;11.934;2023-04-07T11:55:03;17.40;;;1.80;;
4232;SDS011;2130;48.472;11.934;2023-04-07T11:57:51;19.17;;;2.17;;
4232;SDS011;2130;48.472;11.934;2023-04-07T12:00:53;16.77;;;1.53;;
4232;SDS011;2130;48.472;11.934;2023-04-07T12:03:53;17.63;;;1.77;;
4232;SDS011;2130;48.472;11.934;2023-04-07T12:06:43;16.27;;;1.33;;
4232;SDS011;2130;48.472;11.934;2023-04-07T12:09:33;18.80;;;1.70;;
4232;SDS011;2130;48.472;11.934;2023-04-07T12:12:26;15.83;;;1.80;;
4232;SDS011;2130;48.472;11.934;2023-04-07T12:15:15;15.87;;;1.70;;
4232;SDS011;2130;48.472;11.934;2023-04-07T12:18:05;16.40;;;1.70;;
4232;SDS011;2130;48.472;11.934;2023-04-07T12:20:53;16.13;;;1.40;;
4232;SDS011;2130;48.472;11.934;2023-04-07T12:23:42;16.67;;;1.73;;
4232;SDS011;2130;48.472;11.934;2023-04-07T12:26:30;16.33;;;1.60;;
4232;SDS011;2130;48.472;11.934;2023-04-07T12:29:19;16.20;;;1.27;;
4232;SDS011;2130;48.472;11.934;2023-04-07T12:32:07;15.40;;;1.50;;
4232;SDS011;2130;48.472;11.934;2023-04-07T12:34:57;15.70;;;1.77;;
4232;SDS011;2130;48.472;11.934;2023-04-07T12:37:46;16.43;;;1.80;;
4232;SDS011;2130;48.472;11.934;2023-04-07T12:40:36;15.63;;;1.63;;
4232;SDS011;2130;48.472;11.934;2023-04-07T12:43:24;15.57;;;1.67;;
4232;SDS011;2130;48.472;11.934;2023-04-07T12:46:12;16.33;;;1.80;;
4232;SDS011;2130;48.472;11.934;2023-04-07T12:49:01;17.00;;;1.40;;
4232;SDS011;2130;48.472;11.934;2023-04-07T12:51:51;15.57;;;1.60;;
4232;SDS011;2130;48.472;11.934;2023-04-07T12:54:39;16.00;;;1.43;;
4232;SDS011;2130;48.472;11.934;2023-04-07T12:57:28;16.13;;;1.53;;
4232;SDS011;2130;48.472;11.934;2023-04-07T13:00:17;15.77;;;1.77;;
4232;SDS011;2130;48.472;11.934;2023-04-07T13:03:05;17.23;;;1.80;;
4232;SDS011;2130;48.472;11.934;2023-04-07T13:05:54;15.97;;;1.90;;
4232;SDS011;2130;48.472;11.934;2023-04-07T13:08:48;14.53;;;1.40;;
4232;SDS011;2130;48.472;11.934;2023-04-07T13:11:38;16.47;;;1.73;;
4232;SDS011;2130;48.472;11.934;2023-04-07T13:14:26;16.27;;;1.80;;
4232;SDS011;2130;48.472;11.934;2023-04-07T13:17:15;15.13;;;1.40;;
4232;SDS011;2130;48.472;11.934;2023-04-07T13:20:05;16.63;;;2.03;;
4232;SDS011;2130;48.472;11.934;2023-04-07T13:22:54;15.37;;;1.53;;
4232;SDS011;2130;48.472;11.934;2023-04-07T13:25:55;14.63;;;1.47;;
4232;SDS011;2130;48.472;11.934;2023-04-07T13:28:43;15.00;;;1.30;;
4232;SDS011;2130;48.472;11.934;2023-04-07T13:31:33;14.70;;;1.47;;
4232;SDS011;2130;48.472;11.934;2023-04-07T13:34:22;15.00;;;1.40;;
4232;SDS011;2130;48.472;11.934;2023-04-07T13:37:11;14.63;;;1.50;;
4232;SDS011;2130;48.472;11.934;2023-04-07T13:40:00;14.47;;;1.60;;
4232;SDS011;2130;48.472;11.934;2023-04-07T13:42:50;14.63;;;1.60;;
4232;SDS011;2130;48.472;11.934;2023-04-07T13:45:38;15.20;;;1.57;;
4232;SDS011;2130;48.472;11.934;2023-04-07T13:48:27;14.57;;;1.53;;
4232;SDS011;2130;48.472;11.934;2023-04-07T13:51:15;14.70;;;1.23;;
4232;SDS011;2130;48.472;11.934;2023-04-07T13:54:04;15.37;;;1.50;;
4232;SDS011;2130;48.472;11.934;2023-04-07T13:56:52;15.13;;;1.70;;
4232;SDS011;2130;48.472;11.934;2023-04-07T13:59:42;15.17;;;1.50;;
4232;SDS011;2130;48.472;11.934;2023-04-07T14:02:30;15.17;;;1.60;;
4232;SDS011;2130;48.472;11.934;2023-04-07T14:05:20;14.87;;;1.60;;
4232;SDS011;2130;48.472;11.934;2023-04-07T14:08:08;15.10;;;1.33;;
4232;SDS011;2130;48.472;11.934;2023-04-07T14:10:57;17.47;;;1.57;;
4232;SDS011;2130;48.472;11.934;2023-04-07T14:13:45;14.83;;;1.47;;
4232;SDS011;2130;48.472;11.934;2023-04-07T14:16:35;15.67;;;1.60;;
4232;SDS011;2130;48.472;11.934;2023-04-07T14:19:23;15.50;;;1.87;;
4232;SDS011;2130;48.472;11.934;2023-04-07T14:22:12;17.40;;;1.60;;
4232;SDS011;2130;48.472;11.934;2023-04-07T14:25:01;15.37;;;1.60;;
4232;SDS011;2130;48.472;11.934;2023-04-07T14:27:50;16.20;;;1.60;;
4232;SDS011;2130;48.472;11.934;2023-04-07T14:30:39;15.90;;;1.57;;
4232;SDS011;2130;48.472;11.934;2023-04-07T14:33:28;16.70;;;1.53;;
4232;SDS011;2130;48.472;11.934;2023-04-07T14:36:17;15.07;;;1.63;;
4232;SDS011;2130;48.472;11.934;2023-04-07T14:39:05;15.20;;;1.53;;
4232;SDS011;2130;48.472;11.934;2023-04-07T14:41:54;15.60;;;1.50;;
4232;SDS011;2130;48.472;11.934;2023-04-07T14:44:43;16.50;;;1.70;;
4232;SDS011;2130;48.472;11.934;2023-04-07T14:47:31;15.03;;;1.30;;
4232;SDS011;2130;48.472;11.934;2023-04-07T14:50:21;17.43;;;1.87;;
4232;SDS011;2130;48.472;11.934;2023-04-07T14:53:10;16.70;;;1.57;;
4232;SDS011;2130;48.472;11.934;2023-04-07T14:55:58;17.40;;;1.87;;
4232;SDS011;2130;48.472;11.934;2023-04-07T14:58:51;17.73;;;2.00;;
4232;SDS011;2130;48.472;11.934;2023-04-07T15:01:39;15.80;;;1.80;;
4232;SDS011;2130;48.472;11.934;2023-04-07T15:04:28;17.67;;;1.67;;
4232;SDS011;2130;48.472;11.934;2023-04-07T15:07:19;16.53;;;1.50;;
4232;SDS011;2130;48.472;11.934;2023-04-07T15:10:08;15.00;;;1.30;;
4232;SDS011;2130;48.472;11.934;2023-04-07T15:12:56;15.60;;;1.57;;
4232;SDS011;2130;48.472;11.934;2023-04-07T15:15:45;17.17;;;1.93;;
4232;SDS011;2130;48.472;11.934;2023-04-07T15:18:33;19.03;;;1.70;;
4232;SDS011;2130;48.472;11.934;2023-04-07T15:21:22;16.53;;;2.00;;
4232;SDS011;2130;48.472;11.934;2023-04-07T15:24:11;17.33;;;1.80;;
4232;SDS011;2130;48.472;11.934;2023-04-07T15:27:02;16.17;;;1.73;;
4232;SDS011;2130;48.472;11.934;2023-04-07T15:29:50;18.10;;;1.80;;
4232;SDS011;2130;48.472;11.934;2023-04-07T15:32:39;16.13;;;1.53;;
4232;SDS011;2130;48.472;11.934;2023-04-07T15:35:27;16.40;;;1.63;;
4232;SDS011;2130;48.472;11.934;2023-04-07T15:38:16;16.97;;;1.60;;
4232;SDS011;2130;48.472;11.934;2023-04-07T15:41:05;17.13;;;1.67;;
4232;SDS011;2130;48.472;11.934;2023-04-07T15:43:54;18.43;;;1.47;;
4232;SDS011;2130;48.472;11.934;2023-04-07T15:46:43;17.63;;;2.00;;
4232;SDS011;2130;48.472;11.934;2023-04-07T15:49:31;16.93;;;1.70;;
4232;SDS011;2130;48.472;11.934;2023-04-07T15:52:20;16.23;;;1.53;;
4232;SDS011;2130;48.472;11.934;2023-04-07T15:55:09;17.27;;;1.90;;
4232;SDS011;2130;48.472;11.934;2023-04-07T15:57:59;18.37;;;1.77;;
4232;SDS011;2130;48.472;11.934;2023-04-07T16:00:47;16.83;;;1.70;;
4232;SDS011;2130;48.472;11.934;2023-04-07T16:03:36;17.17;;;1.77;;
4232;SDS011;2130;48.472;11.934;2023-04-07T16:06:24;17.77;;;1.80;;
4232;SDS011;2130;48.472;11.934;2023-04-07T16:09:13;15.53;;;1.60;;
4232;SDS011;2130;48.472;11.934;2023-04-07T16:12:01;16.20;;;1.90;;
4232;SDS011;2130;48.472;11.934;2023-04-07T16:14:53;17.17;;;1.60;;
4232;SDS011;2130;48.472;11.934;2023-04-07T16:17:44;16.30;;;1.60;;
4232;SDS011;2130;48.472;11.934;2023-04-07T16:20:34;17.17;;;1.90;;
4232;SDS011;2130;48.472;11.934;2023-04-07T16:23:22;18.83;;;1.70;;
4232;SDS011;2130;48.472;11.934;2023-04-07T16:26:11;18.10;;;1.83;;
4232;SDS011;2130;48.472;11.934;2023-04-07T16:28:59;16.13;;;1.60;;
4232;SDS011;2130;48.472;11.934;2023-04-07T16:31:49;17.00;;;1.83;;
4232;SDS011;2130;48.472;11.934;2023-04-07T16:34:37;16.53;;;2.00;;
4232;SDS011;2130;48.472;11.934;2023-04-07T16:37:26;16.90;;;1.77;;
4232;SDS011;2130;48.472;11.934;2023-04-07T16:40:16;16.83;;;1.60;;
4232;SDS011;2130;48.472;11.934;2023-04-07T16:43:04;17.60;;;2.00;;
4232;SDS011;2130;48.472;11.934;2023-04-07T16:45:54;16.53;;;1.63;;
4232;SDS011;2130;48.472;11.934;2023-04-07T16:48:47;16.77;;;1.90;;
4232;SDS011;2130;48.472;11.934;2023-04-07T16:51:36;17.77;;;1.90;;
4232;SDS011;2130;48.472;11.934;2023-04-07T16:54:24;16.50;;;1.77;;
4232;SDS011;2130;48.472;11.934;2023-04-07T16:57:13;16.60;;;1.60;;
4232;SDS011;2130;48.472;11.934;2023-04-07T17:00:01;16.97;;;1.73;;
4232;SDS011;2130;48.472;11.934;2023-04-07T17:02:51;17.40;;;1.97;;
4232;SDS011;2130;48.472;11.934;2023-04-07T17:05:41;17.73;;;1.80;;
4232;SDS011;2130;48.472;11.934;2023-04-07T17:08:33;17.80;;;1.77;;
4232;SDS011;2130;48.472;11.934;2023-04-07T17:11:22;17.97;;;1.77;;
4232;SDS011;2130;48.472;11.934;2023-04-07T17:14:10;16.33;;;1.67;;
4232;SDS011;2130;48.472;11.934;2023-04-07T17:16:59;19.30;;;2.20;;
4232;SDS011;2130;48.472;11.934;2023-04-07T17:19:48;17.60;;;1.70;;